sensor_id;sensor_type;location;lat;lon;timestamp;P1;durP1;ratioP1;P2;durP2;ratioP2
17949;SDS011;9100;48.700;9.316;2024-01-10T00:00:24;17;;;10.5;;
17949;SDS011;9100;48.700;9.316;2024-01-10T00:01:16;17.9;;;10.1;;
17949;SDS011;9100;48.700;9.316;2024-01-10T00:01:24;17.9;;;10.1;;
17949;SDS011;9100;48.700;9.316;2024-01-10T00:02:24;17.9;;;10.1;;
17949;SDS011;9100;48.700;9.316;2024-01-10T00:03:24;17.9;;;10.1;;
17949;SDS011;9100;48.700;9.316;2024-01-10T00:04:24;17.9;;;10.1;;
17949;SDS011;9100;48.700;9.316;2024-01-10T00:05:24;17.9;;;10.1;;
17949;SDS011;9100;48.700;9.316;2024-01-10T00:06:16;13.7;;;8.4;;
17949;SDS011;9100;48.700;9.316;2024-01-10T00:06:24;13.7;;;8.4;;
17949;SDS011;9100;48.700;9.316;2024-01-10T00:07:24;13.7;;;8.4;;
17949;SDS011;9100;48.700;9.316;2024-01-10T00:08:24;13.7;;;8.4;;
17949;SDS011;9100;48.700;9.316;2024-01-10T00:09:24;13.7;;;8.4;;
17949;SDS011;9100;48.700;9.316;2024-01-10T00:10:24;13.7;;;8.4;;
17949;SDS011;9100;48.700;9.316;2024-01-10T00:11:16;15.6;;;9.9;;
17949;SDS011;9100;48.700;9.316;2024-01-10T00:11:24;15.6;;;9.9;;
17949;SDS011;9100;48.700;9.316;2024-01-10T00:12:24;15.6;;;9.9;;
17949;SDS011;9100;48.700;9.316;2024-01-10T00:13:24;15.6;;;9.9;;
17949;SDS011;9100;48.700;9.316;2024-01-10T00:14:24;15.6;;;9.9;;
17949;SDS011;9100;48.700;9.316;2024-01-10T00:15:24;15.6;;;9.9;;
17949;SDS011;9100;48.700;9.316;2024-01-10T00:16:16;16.9;;;9.3;;
17949;SDS011;9100;48.700;9.316;2024-01-10T00:16:24;16.9;;;9.3;;
17949;SDS011;9100;48.700;9.316;2024-01-10T00:17:24;16.9;;;9.3;;
17949;SDS011;9100;48.700;9.316;2024-01-10T00:18:24;16.9;;;9.3;;
17949;SDS011;9100;48.700;9.316;2024-01-10T00:19:24;16.9;;;9.3;;
17949;SDS011;9100;48.700;9.316;2024-01-10T00:20:24;16.9;;;9.3;;
17949;SDS011;9100;48.700;9.316;2024-01-10T00:21:16;15.9;;;9.4;;
17949;SDS011;9100;48.700;9.316;2024-01-10T00:21:24;15.9;;;9.4;;
17949;SDS011;9100;48.700;9.316;2024-01-10T00:22:24;15.9;;;9.4;;
17949;SDS011;9100;48.700;9.316;2024-01-10T00:23:24;15.9;;;9.4;;
17949;SDS011;9100;48.700;9.316;2024-01-10T00:24:24;15.9;;;9.4;;
17949;SDS011;9100;48.700;9.316;2024-01-10T00:25:24;15.9;;;9.4;;
17949;SDS011;9100;48.700;9.316;2024-01-10T00:26:16;15.8;;;8.6;;
17949;SDS011;9100;48.700;9.316;2024-01-10T00:26:24;15.8;;;8.6;;
17949;SDS011;9100;48.700;9.316;2024-01-10T00:27:24;15.8;;;8.6;;
17949;SDS011;9100;48.700;9.316;2024-01-10T00:28:24;15.8;;;8.6;;
17949;SDS011;9100;48.700;9.316;2024-01-10T00:29:24;15.8;;;8.6;;
17949;SDS011;9100;48.700;9.316;2024-01-10T00:30:25;15.8;;;8.6;;
17949;SDS011;9100;48.700;9.316;2024-01-10T00:31:16;11.9;;;8.2;;
17949;SDS011;9100;48.700;9.316;2024-01-10T00:31:24;11.9;;;8.2;;
17949;SDS011;9100;48.700;9.316;2024-01-10T00:32:24;11.9;;;8.2;;
17949;SDS011;9100;48.700;9.316;2024-01-10T00:33:24;11.9;;;8.2;;
17949;SDS011;9100;48.700;9.316;2024-01-10T00:34:24;11.9;;;8.2;;
17949;SDS011;9100;48.700;9.316;2024-01-10T00:35:24;11.9;;;8.2;;
17949;SDS011;9100;48.700;9.316;2024-01-10T00:36:16;14;;;8;;
17949;SDS011;9100;48.700;9.316;2024-01-10T00:36:24;14;;;8;;
17949;SDS011;9100;48.700;9.316;2024-01-10T00:37:24;14;;;8;;
17949;SDS011;9100;48.700;9.316;2024-01-10T00:38:24;14;;;8;;
17949;SDS011;9100;48.700;9.316;2024-01-10T00:39:24;14;;;8;;
17949;SDS011;9100;48.700;9.316;2024-01-10T00:40:24;14;;;8;;
17949;SDS011;9100;48.700;9.316;2024-01-10T00:41:16;13.8;;;8;;
17949;SDS011;9100;48.700;9.316;2024-01-10T00:41:24;13.8;;;8;;
17949;SDS011;9100;48.700;9.316;2024-01-10T00:42:24;13.8;;;8;;
17949;SDS011;9100;48.700;9.316;2024-01-10T00:43:24;13.8;;;8;;
17949;SDS011;9100;48.700;9.316;2024-01-10T00:44:24;13.8;;;8;;
17949;SDS011;9100;48.700;9.316;2024-01-10T00:45:24;13.8;;;8;;
17949;SDS011;9100;48.700;9.316;2024-01-10T00:46:16;11.6;;;7.2;;
17949;SDS011;9100;48.700;9.316;2024-01-10T00:46:24;11.6;;;7.2;;
17949;SDS011;9100;48.700;9.316;2024-01-10T00:47:24;11.6;;;7.2;;
17949;SDS011;9100;48.700;9.316;2024-01-10T00:48:24;11.6;;;7.2;;
17949;SDS011;9100;48.700;9.316;2024-01-10T00:49:24;11.6;;;7.2;;
17949;SDS011;9100;48.700;9.316;2024-01-10T00:50:24;11.6;;;7.2;;
17949;SDS011;9100;48.700;9.316;2024-01-10T00:51:16;12;;;8.2;;
17949;SDS011;9100;48.700;9.316;2024-01-10T00:51:25;12;;;8.2;;
17949;SDS011;9100;48.700;9.316;2024-01-10T00:52:24;12;;;8.2;;
17949;SDS011;9100;48.700;9.316;2024-01-10T00:53:24;12;;;8.2;;
17949;SDS011;9100;48.700;9.316;2024-01-10T00:54:24;12;;;8.2;;
17949;SDS011;9100;48.700;9.316;2024-01-10T00:55:24;12;;;8.2;;
17949;SDS011;9100;48.700;9.316;2024-01-10T00:56:16;8.7;;;7.2;;
17949;SDS011;9100;48.700;9.316;2024-01-10T00:56:24;8.7;;;7.2;;
17949;SDS011;9100;48.700;9.316;2024-01-10T00:57:24;8.7;;;7.2;;
17949;SDS011;9100;48.700;9.316;2024-01-10T00:58:24;8.7;;;7.2;;
17949;SDS011;9100;48.700;9.316;2024-01-10T00:59:24;8.7;;;7.2;;
17949;SDS011;9100;48.700;9.316;2024-01-10T01:00:25;8.7;;;7.2;;
17949;SDS011;9100;48.700;9.316;2024-01-10T01:01:16;12.2;;;7.7;;
17949;SDS011;9100;48.700;9.316;2024-01-10T01:01:24;12.2;;;7.7;;
17949;SDS011;9100;48.700;9.316;2024-01-10T01:02:24;12.2;;;7.7;;
17949;SDS011;9100;48.700;9.316;2024-01-10T01:03:24;12.2;;;7.7;;
17949;SDS011;9100;48.700;9.316;2024-01-10T01:04:24;12.2;;;7.7;;
17949;SDS011;9100;48.700;9.316;2024-01-10T01:05:24;12.2;;;7.7;;
17949;SDS011;9100;48.700;9.316;2024-01-10T01:06:16;11.2;;;7.3;;
17949;SDS011;9100;48.700;9.316;2024-01-10T01:06:24;11.2;;;7.3;;
17949;SDS011;9100;48.700;9.316;2024-01-10T01:07:25;11.2;;;7.3;;
17949;SDS011;9100;48.700;9.316;2024-01-10T01:08:24;11.2;;;7.3;;
17949;SDS011;9100;48.700;9.316;2024-01-10T01:09:24;11.2;;;7.3;;
17949;SDS011;9100;48.700;9.316;2024-01-10T01:10:24;11.2;;;7.3;;
17949;SDS011;9100;48.700;9.316;2024-01-10T01:11:16;11.4;;;7.5;;
17949;SDS011;9100;48.700;9.316;2024-01-10T01:11:24;11.4;;;7.5;;
17949;SDS011;9100;48.700;9.316;2024-01-10T01:12:24;11.4;;;7.5;;
17949;SDS011;9100;48.700;9.316;2024-01-10T01:13:24;11.4;;;7.5;;
17949;SDS011;9100;48.700;9.316;2024-01-10T01:14:24;11.4;;;7.5;;
17949;SDS011;9100;48.700;9.316;2024-01-10T01:15:24;11.4;;;7.5;;
17949;SDS011;9100;48.700;9.316;2024-01-10T01:16:16;11.4;;;7.2;;
17949;SDS011;9100;48.700;9.316;2024-01-10T01:16:24;11.4;;;7.2;;
17949;SDS011;9100;48.700;9.316;2024-01-10T01:17:24;11.4;;;7.2;;
17949;SDS011;9100;48.700;9.316;2024-01-10T01:18:24;11.4;;;7.2;;
17949;SDS011;9100;48.700;9.316;2024-01-10T01:19:24;11.4;;;7.2;;
17949;SDS011;9100;48.700;9.316;2024-01-10T01:20:24;11.4;;;7.2;;
17949;SDS011;9100;48.700;9.316;2024-01-10T01:21:16;12.5;;;8.1;;
17949;SDS011;9100;48.700;9.316;2024-01-10T01:21:24;12.5;;;8.1;;
17949;SDS011;9100;48.700;9.316;2024-01-10T01:22:24;12.5;;;8.1;;
17949;SDS011;9100;48.700;9.316;2024-01-10T01:23:25;12.5;;;8.1;;
17949;SDS011;9100;48.700;9.316;2024-01-10T01:24:24;12.5;;;8.1;;
17949;SDS011;9100;48.700;9.316;2024-01-10T01:25:24;12.5;;;8.1;;
17949;SDS011;9100;48.700;9.316;2024-01-10T01:26:16;13.2;;;8;;
17949;SDS011;9100;48.700;9.316;2024-01-10T01:26:24;13.2;;;8;;
17949;SDS011;9100;48.700;9.316;2024-01-10T01:27:24;13.2;;;8;;
17949;SDS011;9100;48.700;9.316;2024-01-10T01:28:24;13.2;;;8;;
17949;SDS011;9100;48.700;9.316;2024-01-10T01:29:24;13.2;;;8;;
17949;SDS011;9100;48.700;9.316;2024-01-10T01:30:24;13.2;;;8;;
17949;SDS011;9100;48.700;9.316;2024-01-10T01:31:16;13.9;;;7.7;;
17949;SDS011;9100;48.700;9.316;2024-01-10T01:31:24;13.9;;;7.7;;
17949;SDS011;9100;48.700;9.316;2024-01-10T01:32:24;13.9;;;7.7;;
17949;SDS011;9100;48.700;9.316;2024-01-10T01:33:24;13.9;;;7.7;;
17949;SDS011;9100;48.700;9.316;2024-01-10T01:34:24;13.9;;;7.7;;
17949;SDS011;9100;48.700;9.316;2024-01-10T01:35:24;13.9;;;7.7;;
17949;SDS011;9100;48.700;9.316;2024-01-10T01:36:16;11.9;;;7.8;;
17949;SDS011;9100;48.700;9.316;2024-01-10T01:36:24;11.9;;;7.8;;
17949;SDS011;9100;48.700;9.316;2024-01-10T01:37:24;11.9;;;7.8;;
17949;SDS011;9100;48.700;9.316;2024-01-10T01:38:24;11.9;;;7.8;;
17949;SDS011;9100;48.700;9.316;2024-01-10T01:39:24;11.9;;;7.8;;
17949;SDS011;9100;48.700;9.316;2024-01-10T01:40:24;11.9;;;7.8;;
17949;SDS011;9100;48.700;9.316;2024-01-10T01:41:16;11.4;;;8.3;;
17949;SDS011;9100;48.700;9.316;2024-01-10T01:41:24;11.4;;;8.3;;
17949;SDS011;9100;48.700;9.316;2024-01-10T01:42:24;11.4;;;8.3;;
17949;SDS011;9100;48.700;9.316;2024-01-10T01:43:24;11.4;;;8.3;;
17949;SDS011;9100;48.700;9.316;2024-01-10T01:44:24;11.4;;;8.3;;
17949;SDS011;9100;48.700;9.316;2024-01-10T01:45:24;11.4;;;8.3;;
17949;SDS011;9100;48.700;9.316;2024-01-10T01:46:16;13.5;;;8;;
17949;SDS011;9100;48.700;9.316;2024-01-10T01:46:24;13.5;;;8;;
17949;SDS011;9100;48.700;9.316;2024-01-10T01:47:24;13.5;;;8;;
17949;SDS011;9100;48.700;9.316;2024-01-10T01:48:24;13.5;;;8;;
17949;SDS011;9100;48.700;9.316;2024-01-10T01:49:24;13.5;;;8;;
17949;SDS011;9100;48.700;9.316;2024-01-10T01:50:24;13.5;;;8;;
17949;SDS011;9100;48.700;9.316;2024-01-10T01:51:16;11.1;;;7.3;;
17949;SDS011;9100;48.700;9.316;2024-01-10T01:51:24;11.1;;;7.3;;
17949;SDS011;9100;48.700;9.316;2024-01-10T01:52:24;11.1;;;7.3;;
17949;SDS011;9100;48.700;9.316;2024-01-10T01:53:24;11.1;;;7.3;;
17949;SDS011;9100;48.700;9.316;2024-01-10T01:54:24;11.1;;;7.3;;
17949;SDS011;9100;48.700;9.316;2024-01-10T01:55:24;11.1;;;7.3;;
17949;SDS011;9100;48.700;9.316;2024-01-10T01:56:16;12.2;;;7.6;;
17949;SDS011;9100;48.700;9.316;2024-01-10T01:56:24;12.2;;;7.6;;
17949;SDS011;9100;48.700;9.316;2024-01-10T01:57:24;12.2;;;7.6;;
17949;SDS011;9100;48.700;9.316;2024-01-10T01:58:24;12.2;;;7.6;;
17949;SDS011;9100;48.700;9.316;2024-01-10T01:59:24;12.2;;;7.6;;
17949;SDS011;9100;48.700;9.316;2024-01-10T02:00:24;12.2;;;7.6;;
17949;SDS011;9100;48.700;9.316;2024-01-10T02:01:16;11.2;;;7.3;;
17949;SDS011;9100;48.700;9.316;2024-01-10T02:01:24;11.2;;;7.3;;
17949;SDS011;9100;48.700;9.316;2024-01-10T02:02:24;11.2;;;7.3;;
17949;SDS011;9100;48.700;9.316;2024-01-10T02:03:24;11.2;;;7.3;;
17949;SDS011;9100;48.700;9.316;2024-01-10T02:04:24;11.2;;;7.3;;
17949;SDS011;9100;48.700;9.316;2024-01-10T02:05:24;11.2;;;7.3;;
17949;SDS011;9100;48.700;9.316;2024-01-10T02:06:16;11;;;7.8;;
17949;SDS011;9100;48.700;9.316;2024-01-10T02:06:24;11;;;7.8;;
17949;SDS011;9100;48.700;9.316;2024-01-10T02:07:24;11;;;7.8;;
17949;SDS011;9100;48.700;9.316;2024-01-10T02:08:24;11;;;7.8;;
17949;SDS011;9100;48.700;9.316;2024-01-10T02:09:24;11;;;7.8;;
17949;SDS011;9100;48.700;9.316;2024-01-10T02:10:24;11;;;7.8;;
17949;SDS011;9100;48.700;9.316;2024-01-10T02:11:16;9.6;;;6.7;;
17949;SDS011;9100;48.700;9.316;2024-01-10T02:11:25;9.6;;;6.7;;
17949;SDS011;9100;48.700;9.316;2024-01-10T02:12:24;9.6;;;6.7;;
17949;SDS011;9100;48.700;9.316;2024-01-10T02:13:24;9.6;;;6.7;;
17949;SDS011;9100;48.700;9.316;2024-01-10T02:14:24;9.6;;;6.7;;
17949;SDS011;9100;48.700;9.316;2024-01-10T02:15:24;9.6;;;6.7;;
17949;SDS011;9100;48.700;9.316;2024-01-10T02:16:16;8.8;;;5.8;;
17949;SDS011;9100;48.700;9.316;2024-01-10T02:16:24;8.8;;;5.8;;
17949;SDS011;9100;48.700;9.316;2024-01-10T02:17:24;8.8;;;5.8;;
17949;SDS011;9100;48.700;9.316;2024-01-10T02:18:24;8.8;;;5.8;;
17949;SDS011;9100;48.700;9.316;2024-01-10T02:19:24;8.8;;;5.8;;
17949;SDS011;9100;48.700;9.316;2024-01-10T02:20:24;8.8;;;5.8;;
17949;SDS011;9100;48.700;9.316;2024-01-10T02:21:16;12.4;;;8;;
17949;SDS011;9100;48.700;9.316;2024-01-10T02:21:24;12.4;;;8;;
17949;SDS011;9100;48.700;9.316;2024-01-10T02:22:24;12.4;;;8;;
17949;SDS011;9100;48.700;9.316;2024-01-10T02:23:24;12.4;;;8;;
17949;SDS011;9100;48.700;9.316;2024-01-10T02:24:24;12.4;;;8;;
17949;SDS011;9100;48.700;9.316;2024-01-10T02:25:25;12.4;;;8;;
17949;SDS011;9100;48.700;9.316;2024-01-10T02:26:16;11.7;;;8;;
17949;SDS011;9100;48.700;9.316;2024-01-10T02:26:25;11.7;;;8;;
17949;SDS011;9100;48.700;9.316;2024-01-10T02:27:24;11.7;;;8;;
17949;SDS011;9100;48.700;9.316;2024-01-10T02:28:24;11.7;;;8;;
17949;SDS011;9100;48.700;9.316;2024-01-10T02:29:24;11.7;;;8;;
17949;SDS011;9100;48.700;9.316;2024-01-10T02:30:24;11.7;;;8;;
17949;SDS011;9100;48.700;9.316;2024-01-10T02:31:16;14.9;;;7.8;;
17949;SDS011;9100;48.700;9.316;2024-01-10T02:31:24;14.9;;;7.8;;
17949;SDS011;9100;48.700;9.316;2024-01-10T02:32:24;14.9;;;7.8;;
17949;SDS011;9100;48.700;9.316;2024-01-10T02:33:24;14.9;;;7.8;;
17949;SDS011;9100;48.700;9.316;2024-01-10T02:34:24;14.9;;;7.8;;
17949;SDS011;9100;48.700;9.316;2024-01-10T02:35:24;14.9;;;7.8;;
17949;SDS011;9100;48.700;9.316;2024-01-10T02:36:16;13.5;;;8.1;;
17949;SDS011;9100;48.700;9.316;2024-01-10T02:36:24;13.5;;;8.1;;
17949;SDS011;9100;48.700;9.316;2024-01-10T02:37:24;13.5;;;8.1;;
17949;SDS011;9100;48.700;9.316;2024-01-10T02:38:24;13.5;;;8.1;;
17949;SDS011;9100;48.700;9.316;2024-01-10T02:39:24;13.5;;;8.1;;
17949;SDS011;9100;48.700;9.316;2024-01-10T02:40:24;13.5;;;8.1;;
17949;SDS011;9100;48.700;9.316;2024-01-10T02:41:16;6.2;;;4.6;;
17949;SDS011;9100;48.700;9.316;2024-01-10T02:41:24;6.2;;;4.6;;
17949;SDS011;9100;48.700;9.316;2024-01-10T02:42:25;6.2;;;4.6;;
17949;SDS011;9100;48.700;9.316;2024-01-10T02:43:24;6.2;;;4.6;;
17949;SDS011;9100;48.700;9.316;2024-01-10T02:44:24;6.2;;;4.6;;
17949;SDS011;9100;48.700;9.316;2024-01-10T02:45:24;6.2;;;4.6;;
17949;SDS011;9100;48.700;9.316;2024-01-10T02:46:16;3.8;;;3.1;;
17949;SDS011;9100;48.700;9.316;2024-01-10T02:46:24;3.8;;;3.1;;
17949;SDS011;9100;48.700;9.316;2024-01-10T02:47:24;3.8;;;3.1;;
17949;SDS011;9100;48.700;9.316;2024-01-10T02:48:24;3.8;;;3.1;;
17949;SDS011;9100;48.700;9.316;2024-01-10T02:49:24;3.8;;;3.1;;
17949;SDS011;9100;48.700;9.316;2024-01-10T02:50:24;3.8;;;3.1;;
17949;SDS011;9100;48.700;9.316;2024-01-10T02:51:16;11.1;;;7.3;;
17949;SDS011;9100;48.700;9.316;2024-01-10T02:51:26;11.1;;;7.3;;
17949;SDS011;9100;48.700;9.316;2024-01-10T02:52:24;11.1;;;7.3;;
17949;SDS011;9100;48.700;9.316;2024-01-10T02:53:24;11.1;;;7.3;;
17949;SDS011;9100;48.700;9.316;2024-01-10T02:54:24;11.1;;;7.3;;
17949;SDS011;9100;48.700;9.316;2024-01-10T02:55:24;11.1;;;7.3;;
17949;SDS011;9100;48.700;9.316;2024-01-10T02:56:16;14.3;;;8.9;;
17949;SDS011;9100;48.700;9.316;2024-01-10T02:56:24;14.3;;;8.9;;
17949;SDS011;9100;48.700;9.316;2024-01-10T02:57:24;14.3;;;8.9;;
17949;SDS011;9100;48.700;9.316;2024-01-10T02:58:24;14.3;;;8.9;;
17949;SDS011;9100;48.700;9.316;2024-01-10T02:59:24;14.3;;;8.9;;
17949;SDS011;9100;48.700;9.316;2024-01-10T03:00:24;14.3;;;8.9;;
17949;SDS011;9100;48.700;9.316;2024-01-10T03:01:16;11.1;;;7.4;;
17949;SDS011;9100;48.700;9.316;2024-01-10T03:01:24;11.1;;;7.4;;
17949;SDS011;9100;48.700;9.316;2024-01-10T03:02:24;11.1;;;7.4;;
17949;SDS011;9100;48.700;9.316;2024-01-10T03:03:24;11.1;;;7.4;;
17949;SDS011;9100;48.700;9.316;2024-01-10T03:04:24;11.1;;;7.4;;
17949;SDS011;9100;48.700;9.316;2024-01-10T03:05:24;11.1;;;7.4;;
17949;SDS011;9100;48.700;9.316;2024-01-10T03:06:16;9;;;5.8;;
17949;SDS011;9100;48.700;9.316;2024-01-10T03:06:24;9;;;5.8;;
17949;SDS011;9100;48.700;9.316;2024-01-10T03:07:24;9;;;5.8;;
17949;SDS011;9100;48.700;9.316;2024-01-10T03:08:24;9;;;5.8;;
17949;SDS011;9100;48.700;9.316;2024-01-10T03:09:24;9;;;5.8;;
17949;SDS011;9100;48.700;9.316;2024-01-10T03:10:24;9;;;5.8;;
17949;SDS011;9100;48.700;9.316;2024-01-10T03:11:16;12.8;;;8.1;;
17949;SDS011;9100;48.700;9.316;2024-01-10T03:11:24;12.8;;;8.1;;
17949;SDS011;9100;48.700;9.316;2024-01-10T03:12:24;12.8;;;8.1;;
17949;SDS011;9100;48.700;9.316;2024-01-10T03:13:24;12.8;;;8.1;;
17949;SDS011;9100;48.700;9.316;2024-01-10T03:14:24;12.8;;;8.1;;
17949;SDS011;9100;48.700;9.316;2024-01-10T03:15:24;12.8;;;8.1;;
17949;SDS011;9100;48.700;9.316;2024-01-10T03:16:16;10.1;;;6.1;;
17949;SDS011;9100;48.700;9.316;2024-01-10T03:16:24;10.1;;;6.1;;
17949;SDS011;9100;48.700;9.316;2024-01-10T03:17:24;10.1;;;6.1;;
17949;SDS011;9100;48.700;9.316;2024-01-10T03:18:24;10.1;;;6.1;;
17949;SDS011;9100;48.700;9.316;2024-01-10T03:19:24;10.1;;;6.1;;
17949;SDS011;9100;48.700;9.316;2024-01-10T03:20:24;10.1;;;6.1;;
17949;SDS011;9100;48.700;9.316;2024-01-10T03:21:16;10.7;;;7.7;;
17949;SDS011;9100;48.700;9.316;2024-01-10T03:21:24;10.7;;;7.7;;
17949;SDS011;9100;48.700;9.316;2024-01-10T03:22:24;10.7;;;7.7;;
17949;SDS011;9100;48.700;9.316;2024-01-10T03:23:24;10.7;;;7.7;;
17949;SDS011;9100;48.700;9.316;2024-01-10T03:24:24;10.7;;;7.7;;
17949;SDS011;9100;48.700;9.316;2024-01-10T03:25:24;10.7;;;7.7;;
17949;SDS011;9100;48.700;9.316;2024-01-10T03:26:16;4.9;;;4;;
17949;SDS011;9100;48.700;9.316;2024-01-10T03:26:24;4.9;;;4;;
17949;SDS011;9100;48.700;9.316;2024-01-10T03:27:24;4.9;;;4;;
17949;SDS011;9100;48.700;9.316;2024-01-10T03:28:24;4.9;;;4;;
17949;SDS011;9100;48.700;9.316;2024-01-10T03:29:24;4.9;;;4;;
17949;SDS011;9100;48.700;9.316;2024-01-10T03:30:24;4.9;;;4;;
17949;SDS011;9100;48.700;9.316;2024-01-10T03:31:16;11.1;;;7.1;;
17949;SDS011;9100;48.700;9.316;2024-01-10T03:31:26;11.1;;;7.1;;
17949;SDS011;9100;48.700;9.316;2024-01-10T03:32:24;11.1;;;7.1;;
17949;SDS011;9100;48.700;9.316;2024-01-10T03:33:24;11.1;;;7.1;;
17949;SDS011;9100;48.700;9.316;2024-01-10T03:34:24;11.1;;;7.1;;
17949;SDS011;9100;48.700;9.316;2024-01-10T03:35:24;11.1;;;7.1;;
17949;SDS011;9100;48.700;9.316;2024-01-10T03:36:16;4.5;;;2.4;;
17949;SDS011;9100;48.700;9.316;2024-01-10T03:36:24;4.5;;;2.4;;
17949;SDS011;9100;48.700;9.316;2024-01-10T03:37:24;4.5;;;2.4;;
17949;SDS011;9100;48.700;9.316;2024-01-10T03:38:24;4.5;;;2.4;;
17949;SDS011;9100;48.700;9.316;2024-01-10T03:39:24;4.5;;;2.4;;
17949;SDS011;9100;48.700;9.316;2024-01-10T03:40:24;4.5;;;2.4;;
17949;SDS011;9100;48.700;9.316;2024-01-10T03:41:16;4.9;;;4.4;;
17949;SDS011;9100;48.700;9.316;2024-01-10T03:41:24;4.9;;;4.4;;
17949;SDS011;9100;48.700;9.316;2024-01-10T03:42:24;4.9;;;4.4;;
17949;SDS011;9100;48.700;9.316;2024-01-10T03:43:24;4.9;;;4.4;;
17949;SDS011;9100;48.700;9.316;2024-01-10T03:44:25;4.9;;;4.4;;
17949;SDS011;9100;48.700;9.316;2024-01-10T03:45:24;4.9;;;4.4;;
17949;SDS011;9100;48.700;9.316;2024-01-10T03:46:16;5.2;;;3.2;;
17949;SDS011;9100;48.700;9.316;2024-01-10T03:46:24;5.2;;;3.2;;
17949;SDS011;9100;48.700;9.316;2024-01-10T03:47:24;5.2;;;3.2;;
17949;SDS011;9100;48.700;9.316;2024-01-10T03:48:24;5.2;;;3.2;;
17949;SDS011;9100;48.700;9.316;2024-01-10T03:49:24;5.2;;;3.2;;
17949;SDS011;9100;48.700;9.316;2024-01-10T03:50:24;5.2;;;3.2;;
17949;SDS011;9100;48.700;9.316;2024-01-10T03:51:16;2.9;;;2.7;;
17949;SDS011;9100;48.700;9.316;2024-01-10T03:51:24;2.9;;;2.7;;
17949;SDS011;9100;48.700;9.316;2024-01-10T03:52:24;2.9;;;2.7;;
17949;SDS011;9100;48.700;9.316;2024-01-10T03:53:24;2.9;;;2.7;;
17949;SDS011;9100;48.700;9.316;2024-01-10T03:54:24;2.9;;;2.7;;
17949;SDS011;9100;48.700;9.316;2024-01-10T03:55:24;2.9;;;2.7;;
17949;SDS011;9100;48.700;9.316;2024-01-10T03:56:16;9.4;;;5.7;;
17949;SDS011;9100;48.700;9.316;2024-01-10T03:56:24;9.4;;;5.7;;
17949;SDS011;9100;48.700;9.316;2024-01-10T03:57:24;9.4;;;5.7;;
17949;SDS011;9100;48.700;9.316;2024-01-10T03:58:24;9.4;;;5.7;;
17949;SDS011;9100;48.700;9.316;2024-01-10T03:59:24;9.4;;;5.7;;
17949;SDS011;9100;48.700;9.316;2024-01-10T04:00:24;9.4;;;5.7;;
17949;SDS011;9100;48.700;9.316;2024-01-10T04:01:16;9.6;;;5.8;;
17949;SDS011;9100;48.700;9.316;2024-01-10T04:01:24;9.6;;;5.8;;
17949;SDS011;9100;48.700;9.316;2024-01-10T04:02:24;9.6;;;5.8;;
17949;SDS011;9100;48.700;9.316;2024-01-10T04:03:24;9.6;;;5.8;;
17949;SDS011;9100;48.700;9.316;2024-01-10T04:04:24;9.6;;;5.8;;
17949;SDS011;9100;48.700;9.316;2024-01-10T04:05:24;9.6;;;5.8;;
17949;SDS011;9100;48.700;9.316;2024-01-10T04:06:16;10.3;;;5.9;;
17949;SDS011;9100;48.700;9.316;2024-01-10T04:06:24;10.3;;;5.9;;
17949;SDS011;9100;48.700;9.316;2024-01-10T04:07:25;10.3;;;5.9;;
17949;SDS011;9100;48.700;9.316;2024-01-10T04:08:24;10.3;;;5.9;;
17949;SDS011;9100;48.700;9.316;2024-01-10T04:09:24;10.3;;;5.9;;
17949;SDS011;9100;48.700;9.316;2024-01-10T04:10:24;10.3;;;5.9;;
17949;SDS011;9100;48.700;9.316;2024-01-10T04:11:16;10.2;;;6;;
17949;SDS011;9100;48.700;9.316;2024-01-10T04:11:24;10.2;;;6;;
17949;SDS011;9100;48.700;9.316;2024-01-10T04:12:24;10.2;;;6;;
17949;SDS011;9100;48.700;9.316;2024-01-10T04:13:24;10.2;;;6;;
17949;SDS011;9100;48.700;9.316;2024-01-10T04:14:24;10.2;;;6;;
17949;SDS011;9100;48.700;9.316;2024-01-10T04:15:24;10.2;;;6;;
17949;SDS011;9100;48.700;9.316;2024-01-10T04:16:16;8;;;4.8;;
17949;SDS011;9100;48.700;9.316;2024-01-10T04:16:25;8;;;4.8;;
17949;SDS011;9100;48.700;9.316;2024-01-10T04:17:24;8;;;4.8;;
17949;SDS011;9100;48.700;9.316;2024-01-10T04:18:24;8;;;4.8;;
17949;SDS011;9100;48.700;9.316;2024-01-10T04:19:24;8;;;4.8;;
17949;SDS011;9100;48.700;9.316;2024-01-10T04:20:24;8;;;4.8;;
17949;SDS011;9100;48.700;9.316;2024-01-10T04:21:16;4.7;;;3.9;;
17949;SDS011;9100;48.700;9.316;2024-01-10T04:21:24;4.7;;;3.9;;
17949;SDS011;9100;48.700;9.316;2024-01-10T04:22:24;4.7;;;3.9;;
17949;SDS011;9100;48.700;9.316;2024-01-10T04:23:24;4.7;;;3.9;;
17949;SDS011;9100;48.700;9.316;2024-01-10T04:24:24;4.7;;;3.9;;
17949;SDS011;9100;48.700;9.316;2024-01-10T04:25:24;4.7;;;3.9;;
17949;SDS011;9100;48.700;9.316;2024-01-10T04:26:16;5.9;;;3.9;;
17949;SDS011;9100;48.700;9.316;2024-01-10T04:26:24;5.9;;;3.9;;
17949;SDS011;9100;48.700;9.316;2024-01-10T04:27:24;5.9;;;3.9;;
17949;SDS011;9100;48.700;9.316;2024-01-10T04:28:24;5.9;;;3.9;;
17949;SDS011;9100;48.700;9.316;2024-01-10T04:29:24;5.9;;;3.9;;
17949;SDS011;9100;48.700;9.316;2024-01-10T04:30:24;5.9;;;3.9;;
17949;SDS011;9100;48.700;9.316;2024-01-10T04:31:16;9.7;;;4.3;;
17949;SDS011;9100;48.700;9.316;2024-01-10T04:31:24;9.7;;;4.3;;
17949;SDS011;9100;48.700;9.316;2024-01-10T04:32:24;9.7;;;4.3;;
17949;SDS011;9100;48.700;9.316;2024-01-10T04:33:24;9.7;;;4.3;;
17949;SDS011;9100;48.700;9.316;2024-01-10T04:34:24;9.7;;;4.3;;
17949;SDS011;9100;48.700;9.316;2024-01-10T04:35:24;9.7;;;4.3;;
17949;SDS011;9100;48.700;9.316;2024-01-10T04:36:16;8.8;;;6.3;;
17949;SDS011;9100;48.700;9.316;2024-01-10T04:36:24;8.8;;;6.3;;
17949;SDS011;9100;48.700;9.316;2024-01-10T04:37:24;8.8;;;6.3;;
17949;SDS011;9100;48.700;9.316;2024-01-10T04:38:24;8.8;;;6.3;;
17949;SDS011;9100;48.700;9.316;2024-01-10T04:39:24;8.8;;;6.3;;
17949;SDS011;9100;48.700;9.316;2024-01-10T04:40:24;8.8;;;6.3;;
17949;SDS011;9100;48.700;9.316;2024-01-10T04:41:16;4.8;;;3.6;;
17949;SDS011;9100;48.700;9.316;2024-01-10T04:41:25;4.8;;;3.6;;
17949;SDS011;9100;48.700;9.316;2024-01-10T04:42:24;4.8;;;3.6;;
17949;SDS011;9100;48.700;9.316;2024-01-10T04:43:24;4.8;;;3.6;;
17949;SDS011;9100;48.700;9.316;2024-01-10T04:44:24;4.8;;;3.6;;
17949;SDS011;9100;48.700;9.316;2024-01-10T04:45:24;4.8;;;3.6;;
17949;SDS011;9100;48.700;9.316;2024-01-10T04:46:18;7.5;;;5.1;;
17949;SDS011;9100;48.700;9.316;2024-01-10T04:46:25;7.5;;;5.1;;
17949;SDS011;9100;48.700;9.316;2024-01-10T04:47:24;7.5;;;5.1;;
17949;SDS011;9100;48.700;9.316;2024-01-10T04:48:24;7.5;;;5.1;;
17949;SDS011;9100;48.700;9.316;2024-01-10T04:49:24;7.5;;;5.1;;
17949;SDS011;9100;48.700;9.316;2024-01-10T04:50:24;7.5;;;5.1;;
17949;SDS011;9100;48.700;9.316;2024-01-10T04:51:16;9.2;;;5.6;;
17949;SDS011;9100;48.700;9.316;2024-01-10T04:51:24;9.2;;;5.6;;
17949;SDS011;9100;48.700;9.316;2024-01-10T04:52:24;9.2;;;5.6;;
17949;SDS011;9100;48.700;9.316;2024-01-10T04:53:24;9.2;;;5.6;;
17949;SDS011;9100;48.700;9.316;2024-01-10T04:54:24;9.2;;;5.6;;
17949;SDS011;9100;48.700;9.316;2024-01-10T04:55:24;9.2;;;5.6;;
17949;SDS011;9100;48.700;9.316;2024-01-10T04:56:16;5.3;;;2.7;;
17949;SDS011;9100;48.700;9.316;2024-01-10T04:56:25;5.3;;;2.7;;
17949;SDS011;9100;48.700;9.316;2024-01-10T04:57:24;5.3;;;2.7;;
17949;SDS011;9100;48.700;9.316;2024-01-10T04:58:24;5.3;;;2.7;;
17949;SDS011;9100;48.700;9.316;2024-01-10T04:59:24;5.3;;;2.7;;
17949;SDS011;9100;48.700;9.316;2024-01-10T05:00:24;5.3;;;2.7;;
17949;SDS011;9100;48.700;9.316;2024-01-10T05:01:16;4.2;;;2.1;;
17949;SDS011;9100;48.700;9.316;2024-01-10T05:01:24;4.2;;;2.1;;
17949;SDS011;9100;48.700;9.316;2024-01-10T05:02:24;4.2;;;2.1;;
17949;SDS011;9100;48.700;9.316;2024-01-10T05:03:24;4.2;;;2.1;;
17949;SDS011;9100;48.700;9.316;2024-01-10T05:04:24;4.2;;;2.1;;
17949;SDS011;9100;48.700;9.316;2024-01-10T05:05:24;4.2;;;2.1;;
17949;SDS011;9100;48.700;9.316;2024-01-10T05:06:16;4;;;2.1;;
17949;SDS011;9100;48.700;9.316;2024-01-10T05:06:24;4;;;2.1;;
17949;SDS011;9100;48.700;9.316;2024-01-10T05:07:24;4;;;2.1;;
17949;SDS011;9100;48.700;9.316;2024-01-10T05:08:24;4;;;2.1;;
17949;SDS011;9100;48.700;9.316;2024-01-10T05:09:24;4;;;2.1;;
17949;SDS011;9100;48.700;9.316;2024-01-10T05:10:24;4;;;2.1;;
17949;SDS011;9100;48.700;9.316;2024-01-10T05:11:16;7.6;;;3.2;;
17949;SDS011;9100;48.700;9.316;2024-01-10T05:11:24;7.6;;;3.2;;
17949;SDS011;9100;48.700;9.316;2024-01-10T05:12:24;7.6;;;3.2;;
17949;SDS011;9100;48.700;9.316;2024-01-10T05:13:24;7.6;;;3.2;;
17949;SDS011;9100;48.700;9.316;2024-01-10T05:14:24;7.6;;;3.2;;